Time;durP1;ratioP1;P1;durP2;ratioP2;P2;SDS_P1;SDS_P2;PMS_P1;PMS_P2;Temp;Humidity;BMP_temperature;BMP_pressure;BME280_temperature;BME280_humidity;BME280_pressure;Samples;Min_cycle;Max_cycle;Signal;HPM_P1;HPM_P2
2022/01/26 00:08:06;;;;;;;44.93;23.50;;;4.20;99.90;;;;;;4983625;28;20218;-80
2022/01/26 00:10:33;;;;;;;43.77;23.33;;;4.10;99.90;;;;;;5006023;28;20205;-80
2022/01/26 00:13:00;;;;;;;49.47;25.97;;;4.10;99.90;;;;;;5005076;28;20211;-80
2022/01/26 00:15:30;;;;;;;44.80;23.40;;;4.10;99.90;;;;;;5005663;28;20610;-79
2022/01/26 00:17:57;;;;;;;47.23;24.43;;;4.10;99.90;;;;;;5005923;28;20281;-79
2022/01/26 00:20:28;;;;;;;46.23;24.63;;;4.10;99.90;;;;;;5005214;28;20215;-80
2022/01/26 00:23:08;;;;;;;48.20;26.57;;;4.10;99.90;;;;;;5005858;28;20872;-79
2022/01/26 00:25:43;;;;;;;47.27;25.43;;;4.10;99.90;;;;;;5004990;28;20214;-80
2022/01/26 00:28:33;;;;;;;48.53;27.07;;;4.10;99.90;;;;;;5005142;28;20530;-79
2022/01/26 00:32:00;;;;;;;53.13;27.67;;;4.10;99.90;;;;;;5006361;28;20211;-78
2022/01/26 00:34:18;;;;;;;46.80;25.67;;;4.20;99.90;;;;;;5005581;28;20221;-79
2022/01/26 00:39:29;;;;;;;45.27;24.70;;;4.20;99.90;;;;;;5006304;28;20289;-80
2022/01/26 00:41:58;;;;;;;44.43;24.17;;;4.10;99.90;;;;;;5008000;28;20487;-81
2022/01/26 00:44:32;;;;;;;50.13;26.00;;;4.10;99.90;;;;;;5034119;28;20202;-81
2022/01/26 00:47:00;;;;;;;48.50;25.67;;;4.20;99.90;;;;;;5023498;28;20207;-81
2022/01/26 00:49:27;;;;;;;47.90;25.63;;;4.20;99.90;;;;;;5005343;28;20223;-81
2022/01/26 00:51:55;;;;;;;47.67;26.23;;;4.20;99.90;;;;;;5011063;28;20204;-80
2022/01/26 00:54:22;;;;;;;49.10;25.63;;;4.20;99.90;;;;;;5024586;28;20213;-80
2022/01/26 00:56:49;;;;;;;46.50;26.40;;;4.10;99.90;;;;;;5021657;28;20199;-79
2022/01/26 00:59:16;;;;;;;48.70;25.13;;;4.10;99.90;;;;;;5005793;28;20234;-79
2022/01/26 01:01:45;;;;;;;49.50;27.70;;;4.10;99.90;;;;;;5005420;28;20290;-80
2022/01/26 01:04:13;;;;;;;50.93;26.60;;;4.10;99.90;;;;;;5005241;28;20294;-80
2022/01/26 01:06:46;;;;;;;45.27;25.93;;;4.10;99.90;;;;;;5005175;28;20277;-80
2022/01/26 01:09:13;;;;;;;50.13;26.50;;;4.10;99.90;;;;;;5005302;28;20199;-80
2022/01/26 01:11:40;;;;;;;49.70;26.87;;;4.10;99.90;;;;;;5004823;28;20200;-81
2022/01/26 01:14:08;;;;;;;44.60;24.40;;;4.10;99.90;;;;;;5005667;28;20214;-81
2022/01/26 01:16:35;;;;;;;43.93;24.80;;;4.10;99.90;;;;;;5023674;28;20199;-80
2022/01/26 01:19:07;;;;;;;49.87;25.30;;;4.10;99.90;;;;;;5024629;28;20696;-79
2022/01/26 01:24:51;;;;;;;49.07;26.77;;;4.10;99.90;;;;;;5004360;28;20981;-78
2022/01/26 01:30:09;;;;;;;48.20;27.57;;;4.10;99.90;;;;;;5005051;28;20778;-81
2022/01/26 01:32:39;;;;;;;53.50;27.67;;;4.00;99.90;;;;;;5003913;28;20211;-80
2022/01/26 01:35:09;;;;;;;47.80;25.73;;;4.10;99.90;;;;;;5004643;28;20596;-79
2022/01/26 01:37:38;;;;;;;55.57;27.83;;;4.10;99.90;;;;;;5003953;28;20195;-79
2022/01/26 01:40:06;;;;;;;43.90;25.33;;;4.10;99.90;;;;;;5005205;28;20312;-78
2022/01/26 01:42:33;;;;;;;50.87;27.90;;;4.10;99.90;;;;;;5004674;28;20214;-80
2022/01/26 01:44:59;;;;;;;47.40;25.80;;;4.10;99.90;;;;;;5004186;28;20230;-80
2022/01/26 01:47:27;;;;;;;49.67;26.60;;;4.10;99.90;;;;;;5022787;28;20676;-78
2022/01/26 01:49:54;;;;;;;48.27;26.50;;;4.10;99.90;;;;;;5024373;28;20195;-79
2022/01/26 01:52:21;;;;;;;46.60;26.37;;;4.00;99.90;;;;;;5024257;28;20206;-81
2022/01/26 01:54:52;;;;;;;52.17;28.77;;;4.00;99.90;;;;;;5016022;28;20239;-78
2022/01/26 01:57:23;;;;;;;48.83;26.73;;;4.00;99.90;;;;;;5005813;28;20204;-78
2022/01/26 01:59:50;;;;;;;52.33;29.27;;;4.10;99.90;;;;;;5007717;28;20227;-80
2022/01/26 02:02:17;;;;;;;50.20;27.90;;;4.10;99.90;;;;;;5005246;28;20207;-80
2022/01/26 02:04:44;;;;;;;52.13;27.87;;;4.10;99.90;;;;;;5005502;28;20659;-80
2022/01/26 02:07:12;;;;;;;55.17;29.60;;;4.10;99.90;;;;;;5007376;28;20204;-78
2022/01/26 02:09:39;;;;;;;52.60;26.83;;;4.10;99.90;;;;;;5008282;28;20887;-79
2022/01/26 02:12:15;;;;;;;52.07;28.67;;;4.10;99.90;;;;;;5009200;28;20208;-80
2022/01/26 02:14:47;;;;;;;55.43;29.33;;;4.10;99.90;;;;;;5005134;28;20230;-79
2022/01/26 02:17:26;;;;;;;59.03;32.03;;;4.10;99.90;;;;;;5004830;28;20215;-79
2022/01/26 02:20:21;;;;;;;51.83;28.93;;;4.10;99.90;;;;;;5005715;28;20337;-78
2022/01/26 02:50:56;;;;;;;66.07;34.90;;;4.10;99.90;;;;;;5006630;28;20238;-79
2022/01/26 02:53:43;;;;;;;68.73;37.40;;;4.10;99.90;;;;;;5006623;28;20198;-80
2022/01/26 02:56:19;;;;;;;63.70;35.27;;;4.20;99.90;;;;;;5006466;28;20277;-79
2022/01/26 02:59:06;;;;;;;71.90;39.60;;;4.20;99.90;;;;;;5006706;28;20329;-79
2022/01/26 03:01:47;;;;;;;76.80;39.20;;;4.20;99.90;;;;;;5006906;28;20288;-79
2022/01/26 03:04:22;;;;;;;74.87;38.70;;;4.20;99.90;;;;;;5006621;28;20269;-79
2022/01/26 03:06:56;;;;;;;75.43;39.57;;;4.20;99.90;;;;;;5006523;28;20217;-79
2022/01/26 03:09:27;;;;;;;78.07;43.20;;;4.30;99.90;;;;;;5006308;28;20259;-80
2022/01/26 03:11:57;;;;;;;69.23;37.63;;;4.30;99.90;;;;;;5006813;28;20203;-79
2022/01/26 03:14:33;;;;;;;78.70;42.70;;;4.30;99.90;;;;;;5006374;28;20298;-79
2022/01/26 03:17:07;;;;;;;75.80;41.10;;;4.30;99.90;;;;;;5005655;28;20600;-79
2022/01/26 03:19:38;;;;;;;78.00;42.37;;;4.30;99.90;;;;;;5006420;28;20215;-80
2022/01/26 03:28:08;;;;;;;83.13;44.90;;;4.30;99.90;;;;;;5006663;28;20262;-79
2022/01/26 03:28:17;;;;;;;77.37;42.50;;;4.30;99.90;;;;;;5006487;28;20225;-80
2022/01/26 03:33:50;;;;;;;80.47;41.63;;;4.40;99.90;;;;;;4992004;28;20246;-79
2022/01/26 03:36:17;;;;;;;79.77;42.27;;;4.40;99.90;;;;;;5005986;28;20219;-79
2022/01/26 03:38:46;;;;;;;79.03;45.00;;;4.40;99.90;;;;;;5004708;28;20961;-80
2022/01/26 03:41:22;;;;;;;83.83;45.23;;;4.40;99.90;;;;;;5005467;28;20286;-80
2022/01/26 03:43:50;;;;;;;77.90;42.13;;;4.40;99.90;;;;;;5005094;28;20294;-79
2022/01/26 03:46:17;;;;;;;80.03;43.63;;;4.50;99.90;;;;;;5014754;28;20210;-80
2022/01/26 03:48:44;;;;;;;77.90;41.27;;;4.50;99.90;;;;;;5022749;28;20210;-80
2022/01/26 03:51:11;;;;;;;84.23;45.33;;;4.50;99.90;;;;;;5005760;28;20640;-79
2022/01/26 03:53:37;;;;;;;72.70;41.50;;;4.50;99.90;;;;;;5005285;28;20211;-79
2022/01/26 03:56:05;;;;;;;82.47;42.10;;;4.50;99.90;;;;;;5005446;28;20231;-79
2022/01/26 03:58:31;;;;;;;86.57;46.73;;;4.50;99.90;;;;;;5005117;28;20223;-78
2022/01/26 04:01:00;;;;;;;92.47;48.00;;;4.50;99.90;;;;;;5005573;28;20738;-81
2022/01/26 04:03:27;;;;;;;83.77;44.47;;;4.50;99.90;;;;;;5005590;28;20210;-79
2022/01/26 04:05:53;;;;;;;88.13;45.47;;;4.50;99.90;;;;;;5005349;28;20199;-79
2022/01/26 04:08:25;;;;;;;78.47;42.30;;;4.50;99.90;;;;;;5005439;28;20195;-79
2022/01/26 04:11:03;;;;;;;88.17;44.57;;;4.60;99.90;;;;;;5005417;28;20297;-79
2022/01/26 04:13:30;;;;;;;83.70;45.13;;;4.60;99.90;;;;;;5004982;28;20290;-79
2022/01/26 04:15:57;;;;;;;84.67;43.57;;;4.60;99.90;;;;;;5005243;28;20222;-80
2022/01/26 04:18:32;;;;;;;81.63;41.07;;;4.60;99.90;;;;;;5004796;28;20481;-79
2022/01/26 04:21:03;;;;;;;69.70;37.33;;;4.70;99.90;;;;;;5005169;28;20731;-80
2022/01/26 04:23:38;;;;;;;61.77;32.10;;;4.70;99.90;;;;;;5004867;28;20207;-80
2022/01/26 04:26:05;;;;;;;45.03;23.43;;;4.80;99.90;;;;;;5004091;28;20205;-79
2022/01/26 04:28:38;;;;;;;43.63;24.57;;;5.00;99.90;;;;;;5004664;28;20238;-79
2022/01/26 04:31:05;;;;;;;42.13;23.47;;;5.10;99.90;;;;;;5004984;28;20209;-79
2022/01/26 04:33:34;;;;;;;37.47;21.77;;;5.20;99.90;;;;;;5004657;28;20203;-79
2022/01/26 04:36:03;;;;;;;37.33;21.97;;;5.30;99.90;;;;;;5004902;28;20563;-80
2022/01/26 04:38:35;;;;;;;40.50;22.13;;;5.30;99.90;;;;;;5004464;28;20298;-80
2022/01/26 04:41:17;;;;;;;42.67;22.33;;;5.30;99.90;;;;;;5004884;28;20249;-80
2022/01/26 04:43:46;;;;;;;43.83;23.37;;;5.30;99.90;;;;;;5004475;28;20291;-80
2022/01/26 04:46:13;;;;;;;43.80;24.63;;;5.40;99.90;;;;;;5013698;28;20603;-80
2022/01/26 04:48:41;;;;;;;40.57;21.93;;;5.30;99.90;;;;;;5020495;28;20747;-79
2022/01/26 04:51:08;;;;;;;41.70;22.77;;;5.40;99.90;;;;;;5004839;28;20206;-79
2022/01/26 04:53:35;;;;;;;44.70;23.23;;;5.40;99.90;;;;;;5004692;28;20211;-80
2022/01/26 04:56:02;;;;;;;46.23;23.63;;;5.50;99.90;;;;;;5004910;28;20223;-81
2022/01/26 04:58:28;;;;;;;46.73;25.50;;;5.40;99.90;;;;;;5004469;28;20207;-80
2022/01/26 05:00:55;;;;;;;39.63;22.33;;;5.40;99.90;;;;;;5004482;28;20234;-79
2022/01/26 05:03:22;;;;;;;45.53;23.80;;;5.30;99.90;;;;;;5004778;28;20202;-80
2022/01/26 05:05:50;;;;;;;44.40;23.37;;;5.30;99.90;;;;;;5005154;28;20226;-80
2022/01/26 05:08:17;;;;;;;40.13;23.30;;;5.40;99.90;;;;;;5005190;28;20207;-80
2022/01/26 05:10:44;;;;;;;43.70;23.07;;;5.40;99.90;;;;;;5004768;28;20211;-79
2022/01/26 05:13:14;;;;;;;40.20;22.13;;;5.40;99.90;;;;;;5004693;28;20207;-79
2022/01/26 05:15:41;;;;;;;46.80;22.50;;;5.40;99.90;;;;;;5004424;28;20683;-81
2022/01/26 05:18:08;;;;;;;40.83;21.90;;;5.40;99.90;;;;;;5004420;28;20315;-80
2022/01/26 05:20:35;;;;;;;42.47;23.57;;;5.40;99.90;;;;;;5003878;28;20231;-80
2022/01/26 05:23:05;;;;;;;40.43;22.13;;;5.30;99.90;;;;;;5004123;28;20222;-80
2022/01/26 05:25:31;;;;;;;46.63;24.13;;;5.30;99.90;;;;;;5004497;28;20202;-79
2022/01/26 05:27:58;;;;;;;41.83;23.17;;;5.30;99.90;;;;;;5003862;28;20242;-79
2022/01/26 05:30:27;;;;;;;42.17;24.40;;;5.30;99.90;;;;;;5004688;28;20393;-80
2022/01/26 05:32:54;;;;;;;46.30;23.43;;;5.30;99.90;;;;;;5005225;28;20199;-80
2022/01/26 05:35:20;;;;;;;39.87;22.70;;;5.30;99.90;;;;;;5004653;28;20222;-80
2022/01/26 05:37:47;;;;;;;41.37;22.60;;;5.20;99.90;;;;;;5004014;28;20209;-79
2022/01/26 05:40:16;;;;;;;46.00;23.77;;;5.20;99.90;;;;;;5004880;28;20234;-79
2022/01/26 05:42:43;;;;;;;41.10;23.20;;;5.30;99.90;;;;;;5004470;28;20576;-81
2022/01/26 05:45:20;;;;;;;41.87;23.83;;;5.20;99.90;;;;;;5004560;28;20214;-80
2022/01/26 05:47:47;;;;;;;39.83;22.57;;;5.20;99.90;;;;;;5023698;28;20317;-80
2022/01/26 05:50:13;;;;;;;50.17;25.17;;;5.20;99.90;;;;;;5005175;28;20837;-79
2022/01/26 05:52:40;;;;;;;42.43;23.20;;;5.10;99.90;;;;;;5003735;28;20378;-79
2022/01/26 05:55:08;;;;;;;50.73;26.70;;;5.10;99.90;;;;;;5004667;28;20227;-78
2022/01/26 05:57:36;;;;;;;46.40;25.47;;;5.20;99.90;;;;;;5003859;28;20207;-79
2022/01/26 06:00:04;;;;;;;45.93;23.50;;;5.20;99.90;;;;;;5007717;28;20223;-78
2022/01/26 06:02:32;;;;;;;48.20;25.23;;;5.10;99.90;;;;;;5008067;28;20222;-79
2022/01/26 06:04:59;;;;;;;50.03;27.63;;;5.00;99.90;;;;;;5006923;28;20214;-79
2022/01/26 06:07:26;;;;;;;54.97;27.00;;;5.00;99.90;;;;;;5008264;28;20215;-80
2022/01/26 06:09:53;;;;;;;55.90;29.10;;;5.00;99.90;;;;;;5007776;28;20203;-79
2022/01/26 06:12:19;;;;;;;50.40;27.70;;;5.00;99.90;;;;;;5007606;28;20226;-79
2022/01/26 06:14:47;;;;;;;56.80;29.37;;;4.90;99.90;;;;;;5007723;28;20196;-79
2022/01/26 06:17:14;;;;;;;56.47;30.00;;;5.00;99.90;;;;;;5007482;28;20565;-80
2022/01/26 06:19:41;;;;;;;55.63;29.63;;;4.90;99.90;;;;;;5007441;28;20235;-78
2022/01/26 06:22:08;;;;;;;56.90;31.33;;;4.90;99.90;;;;;;5007763;28;20207;-78
2022/01/26 06:24:35;;;;;;;57.07;29.03;;;4.80;99.90;;;;;;5007828;28;20203;-78
2022/01/26 06:27:01;;;;;;;56.43;29.80;;;4.80;99.90;;;;;;5007473;28;20238;-80
2022/01/26 06:29:30;;;;;;;53.73;30.60;;;4.80;99.90;;;;;;5007514;28;20258;-79
2022/01/26 06:31:58;;;;;;;55.90;30.93;;;4.80;99.90;;;;;;5007513;28;20338;-79
2022/01/26 06:34:25;;;;;;;59.27;30.17;;;4.80;99.90;;;;;;5007061;28;20211;-80
2022/01/26 06:36:52;;;;;;;52.73;28.87;;;4.80;99.90;;;;;;5024412;28;20326;-79
2022/01/26 06:39:19;;;;;;;53.03;27.63;;;4.90;99.90;;;;;;5027073;28;20206;-79
2022/01/26 06:41:50;;;;;;;55.20;30.70;;;4.90;99.90;;;;;;5016356;28;20207;-80
2022/01/26 06:44:22;;;;;;;58.10;30.87;;;4.90;99.90;;;;;;5007348;28;20203;-80
2022/01/26 06:46:58;;;;;;;57.30;30.63;;;4.80;99.90;;;;;;5006733;28;20513;-78
2022/01/26 06:49:30;;;;;;;62.60;32.17;;;4.80;99.90;;;;;;5007253;28;20257;-80
2022/01/26 06:51:57;;;;;;;69.50;35.07;;;4.80;99.90;;;;;;5006349;28;20785;-80
2022/01/26 06:54:24;;;;;;;62.10;32.33;;;4.80;99.90;;;;;;5006287;28;20200;-79
2022/01/26 06:56:51;;;;;;;71.37;36.90;;;4.70;99.90;;;;;;5007786;28;20802;-77
2022/01/26 06:59:18;;;;;;;61.00;32.67;;;4.80;99.90;;;;;;5007208;28;20203;-79
2022/01/26 07:01:45;;;;;;;66.47;33.67;;;4.80;99.90;;;;;;5006454;28;20215;-80
2022/01/26 07:04:12;;;;;;;74.83;35.77;;;4.90;99.90;;;;;;5006993;28;20364;-81
2022/01/26 07:06:40;;;;;;;60.97;31.67;;;4.90;99.90;;;;;;5006199;28;20211;-80
2022/01/26 07:09:07;;;;;;;66.63;33.17;;;4.90;99.90;;;;;;5005947;28;20200;-81
2022/01/26 07:11:33;;;;;;;59.90;32.13;;;4.90;99.90;;;;;;5006274;28;20211;-80
2022/01/26 07:14:02;;;;;;;57.87;31.77;;;4.80;99.90;;;;;;5005974;28;20211;-78
2022/01/26 07:21:59;;;;;;;55.53;28.70;;;4.80;99.90;;;;;;5006332;28;20198;-79
2022/01/26 07:24:26;;;;;;;54.13;28.53;;;4.80;99.90;;;;;;5005494;28;20217;-79
2022/01/26 07:26:54;;;;;;;61.77;32.63;;;4.80;99.90;;;;;;5006848;28;20199;-79
2022/01/26 07:29:23;;;;;;;57.67;28.40;;;4.70;99.90;;;;;;5005160;28;20234;-79
2022/01/26 07:31:51;;;;;;;56.20;29.53;;;4.70;99.90;;;;;;5006317;28;20217;-78
2022/01/26 07:34:20;;;;;;;52.93;28.43;;;4.90;99.90;;;;;;5006192;28;20210;-80
2022/01/26 07:36:49;;;;;;;53.47;27.27;;;4.90;99.90;;;;;;5005751;28;20254;-79
2022/01/26 07:39:28;;;;;;;50.50;26.47;;;4.90;99.90;;;;;;5006218;28;20195;-78
2022/01/26 07:41:55;;;;;;;48.57;26.47;;;4.80;99.90;;;;;;5007115;28;20211;-80
2022/01/26 07:44:22;;;;;;;48.37;27.67;;;4.80;99.90;;;;;;5025036;28;20214;-80
2022/01/26 07:46:48;;;;;;;46.93;25.97;;;4.80;99.90;;;;;;5011641;28;20203;-79
2022/01/26 07:49:15;;;;;;;47.07;26.03;;;4.80;99.90;;;;;;5006049;28;20206;-79
2022/01/26 07:51:42;;;;;;;50.57;28.90;;;4.90;99.90;;;;;;5005334;28;20485;-79
2022/01/26 07:54:09;;;;;;;54.07;26.27;;;4.90;99.90;;;;;;5006525;28;20202;-80
2022/01/26 07:56:38;;;;;;;51.03;27.30;;;4.90;99.90;;;;;;5006630;28;20207;-80
2022/01/26 07:59:04;;;;;;;52.47;27.23;;;4.90;99.90;;;;;;5005398;28;20211;-80
2022/01/26 08:01:31;;;;;;;49.43;26.30;;;4.90;99.90;;;;;;5005909;28;20227;-81
2022/01/26 08:03:58;;;;;;;48.27;25.07;;;4.90;99.90;;;;;;5006625;28;20207;-79
2022/01/26 08:06:25;;;;;;;44.80;24.63;;;4.90;99.90;;;;;;5004988;28;20215;-78
2022/01/26 08:08:51;;;;;;;49.43;27.57;;;4.90;99.90;;;;;;5006276;28;20476;-79
2022/01/26 08:11:18;;;;;;;47.13;27.07;;;4.90;99.90;;;;;;5005771;28;20202;-79
2022/01/26 08:13:46;;;;;;;47.10;26.60;;;4.90;99.90;;;;;;5005395;28;20195;-79
2022/01/26 08:16:13;;;;;;;51.40;26.90;;;4.90;99.90;;;;;;5021592;28;20594;-79
2022/01/26 08:18:40;;;;;;;42.63;26.97;;;4.90;99.90;;;;;;5025489;28;20206;-79
2022/01/26 08:21:07;;;;;;;48.03;26.37;;;4.90;99.90;;;;;;5024632;28;20229;-79
2022/01/26 08:23:36;;;;;;;47.13;25.20;;;4.90;99.90;;;;;;5024215;28;20206;-79
2022/01/26 08:26:06;;;;;;;46.97;26.53;;;4.90;99.90;;;;;;5024127;28;20206;-79
2022/01/26 08:28:36;;;;;;;52.37;25.73;;;4.90;99.90;;;;;;5024834;28;20242;-79
2022/01/26 08:31:05;;;;;;;50.70;26.20;;;4.90;99.90;;;;;;5021175;28;20260;-79
2022/01/26 08:33:32;;;;;;;44.90;24.67;;;4.90;99.90;;;;;;5005000;28;20207;-79
2022/01/26 08:35:59;;;;;;;42.90;24.90;;;5.00;99.90;;;;;;5005631;28;20226;-77
2022/01/26 08:38:26;;;;;;;43.00;24.60;;;5.00;99.90;;;;;;5007428;28;20203;-78
2022/01/26 08:40:53;;;;;;;39.50;23.47;;;4.90;99.90;;;;;;5024429;28;20966;-80
2022/01/26 08:43:20;;;;;;;40.43;23.77;;;4.90;99.90;;;;;;5024442;28;20202;-80
2022/01/26 08:45:47;;;;;;;42.67;22.83;;;5.00;99.90;;;;;;4992720;28;20344;-79
2022/01/26 08:48:15;;;;;;;47.73;23.30;;;5.00;99.90;;;;;;5020156;28;20205;-80
2022/01/26 08:50:42;;;;;;;50.60;23.13;;;5.00;99.90;;;;;;5005421;28;20203;-78
2022/01/26 08:53:09;;;;;;;38.03;21.33;;;5.00;99.90;;;;;;5005907;28;20203;-78
2022/01/26 08:55:36;;;;;;;42.93;21.10;;;5.00;99.90;;;;;;5005577;28;20666;-80
2022/01/26 08:58:04;;;;;;;36.30;19.60;;;5.00;99.90;;;;;;5006578;28;20245;-80
2022/01/26 09:00:30;;;;;;;35.50;19.53;;;5.00;99.90;;;;;;5005151;28;21130;-82
2022/01/26 09:02:57;;;;;;;40.40;20.97;;;5.00;99.90;;;;;;5004496;28;20203;-80
2022/01/26 09:05:25;;;;;;;42.70;20.83;;;5.00;99.90;;;;;;5004623;28;20203;-81
2022/01/26 09:07:56;;;;;;;39.63;20.50;;;5.00;99.90;;;;;;5016517;28;20221;-81
2022/01/26 09:10:26;;;;;;;44.47;22.87;;;5.00;99.90;;;;;;5022236;28;20476;-80
2022/01/26 09:12:53;;;;;;;41.07;23.90;;;5.00;99.90;;;;;;4986985;28;20218;-80
2022/01/26 09:15:26;;;;;;;41.27;21.63;;;5.10;99.90;;;;;;5000410;28;20199;-81
2022/01/26 09:17:54;;;;;;;35.47;20.13;;;5.00;99.90;;;;;;5004286;28;20202;-82
2022/01/26 09:20:20;;;;;;;39.63;21.53;;;5.00;99.90;;;;;;5004795;28;20223;-85
2022/01/26 09:22:49;;;;;;;46.87;22.90;;;5.00;99.90;;;;;;5003978;28;20206;-79
2022/01/26 09:25:16;;;;;;;43.60;21.17;;;5.00;99.90;;;;;;5004376;28;20195;-78
2022/01/26 09:27:43;;;;;;;42.67;23.40;;;5.10;99.90;;;;;;5003948;28;20207;-78
2022/01/26 09:30:10;;;;;;;39.47;22.07;;;5.20;99.90;;;;;;5003859;28;20225;-79
2022/01/26 09:32:38;;;;;;;39.87;20.80;;;5.30;99.90;;;;;;5005604;28;20599;-79
2022/01/26 09:35:06;;;;;;;36.13;20.83;;;5.30;99.90;;;;;;5008045;28;20215;-78
2022/01/26 09:37:33;;;;;;;38.63;20.97;;;5.40;99.90;;;;;;5007862;28;20207;-79
2022/01/26 09:40:01;;;;;;;34.70;21.10;;;5.40;99.90;;;;;;5008153;28;20317;-79
2022/01/26 09:42:28;;;;;;;34.43;20.73;;;5.50;99.90;;;;;;5007442;28;20231;-79
2022/01/26 09:44:54;;;;;;;39.43;22.33;;;5.60;99.90;;;;;;5007318;28;20873;-78
2022/01/26 09:47:25;;;;;;;36.20;21.10;;;5.60;99.90;;;;;;5010586;28;20211;-80
2022/01/26 09:49:52;;;;;;;43.80;23.47;;;5.60;99.90;;;;;;5007626;28;20199;-80
2022/01/26 09:52:25;;;;;;;37.20;22.17;;;5.60;99.90;;;;;;5009378;28;20204;-80
2022/01/26 09:54:52;;;;;;;38.67;22.87;;;5.60;99.90;;;;;;5008143;28;20233;-79
2022/01/26 09:57:20;;;;;;;32.27;19.83;;;5.70;99.90;;;;;;5025814;28;20233;-81
2022/01/26 09:59:48;;;;;;;33.90;19.60;;;5.80;99.90;;;;;;5027466;28;20215;-80
2022/01/26 10:02:22;;;;;;;37.57;20.07;;;5.80;99.90;;;;;;5027380;28;20234;-80
2022/01/26 10:04:55;;;;;;;40.27;21.37;;;5.90;99.90;;;;;;5009599;28;20211;-79
2022/01/26 10:07:27;;;;;;;33.07;20.07;;;5.90;99.90;;;;;;5006423;28;20867;-81
2022/01/26 10:10:04;;;;;;;30.70;19.00;;;5.90;99.90;;;;;;5026278;28;20218;-81
2022/01/26 10:15:36;;;;;;;39.97;22.03;;;5.90;99.90;;;;;;5007331;28;20265;-79
2022/01/26 10:18:08;;;;;;;31.50;20.00;;;6.10;99.90;;;;;;5007391;28;20199;-82
2022/01/26 10:20:47;;;;;;;37.00;21.20;;;6.10;99.90;;;;;;5007292;28;20207;-81
2022/01/26 10:23:17;;;;;;;38.20;21.77;;;6.20;99.90;;;;;;5007278;28;20210;-81
2022/01/26 10:25:46;;;;;;;35.93;20.73;;;6.20;99.90;;;;;;5006620;28;20223;-80
2022/01/26 10:28:17;;;;;;;35.60;21.53;;;6.20;99.90;;;;;;5006279;28;20316;-81
2022/01/26 10:30:47;;;;;;;32.53;20.30;;;6.30;99.90;;;;;;5006162;28;20292;-78
2022/01/26 10:33:16;;;;;;;30.60;19.73;;;6.30;99.90;;;;;;5006449;28;20219;-79
2022/01/26 10:35:43;;;;;;;30.70;20.10;;;6.30;99.90;;;;;;5007455;28;20211;-82
2022/01/26 10:38:10;;;;;;;32.03;18.70;;;6.40;99.90;;;;;;5007398;28;20207;-80
2022/01/26 10:40:40;;;;;;;34.30;19.63;;;6.40;99.90;;;;;;5006341;28;20220;-79
2022/01/26 10:43:10;;;;;;;35.43;20.50;;;6.40;99.90;;;;;;5006635;28;20207;-80
2022/01/26 10:45:57;;;;;;;36.27;20.17;;;6.50;99.90;;;;;;5010454;28;20229;-80
2022/01/26 10:48:30;;;;;;;31.93;19.63;;;6.50;99.90;;;;;;5025301;28;20337;-78
2022/01/26 10:54:08;;;;;;;32.03;17.53;;;6.50;99.90;;;;;;5006968;28;20202;-79
2022/01/26 10:56:35;;;;;;;29.70;18.80;;;6.50;99.90;;;;;;5006537;28;20285;-80
2022/01/26 10:59:02;;;;;;;31.93;17.87;;;6.50;99.90;;;;;;5006766;28;20207;-81
2022/01/26 11:01:30;;;;;;;30.53;18.27;;;6.50;99.90;;;;;;5006354;28;20227;-79
2022/01/26 11:03:57;;;;;;;27.17;17.00;;;6.60;99.90;;;;;;5006946;28;20215;-80
2022/01/26 11:06:23;;;;;;;30.73;17.87;;;6.60;99.90;;;;;;5006300;28;20203;-80
2022/01/26 11:08:51;;;;;;;28.47;17.33;;;6.60;99.90;;;;;;5006303;28;20214;-80
2022/01/26 11:11:23;;;;;;;25.93;15.53;;;6.70;99.90;;;;;;5006096;28;20211;-80
2022/01/26 11:13:50;;;;;;;26.63;16.50;;;6.70;99.90;;;;;;5006740;28;20231;-79
2022/01/26 11:16:19;;;;;;;29.83;17.77;;;6.70;99.90;;;;;;5005736;28;20214;-80
2022/01/26 11:18:50;;;;;;;27.70;17.43;;;6.70;99.90;;;;;;5007132;28;20587;-80
2022/01/26 11:21:34;;;;;;;31.37;17.97;;;6.70;99.90;;;;;;5006356;28;20215;-79
2022/01/26 11:24:09;;;;;;;27.87;16.47;;;6.80;99.90;;;;;;5020229;28;20214;-79
2022/01/26 11:26:38;;;;;;;32.63;17.90;;;6.80;99.90;;;;;;5020882;28;20194;-80
2022/01/26 11:29:19;;;;;;;33.97;19.17;;;6.80;99.90;;;;;;5005327;28;20741;-82
2022/01/26 11:31:47;;;;;;;27.40;17.37;;;6.80;99.90;;;;;;5005528;28;20757;-82
2022/01/26 11:34:18;;;;;;;30.80;17.67;;;6.80;99.90;;;;;;5006659;28;20207;-80
2022/01/26 11:36:48;;;;;;;28.90;16.87;;;6.80;99.90;;;;;;5005435;28;20905;-80
2022/01/26 11:45:11;;;;;;;33.03;18.07;;;6.90;99.90;;;;;;5006471;28;20237;-79
2022/01/26 11:47:40;;;;;;;36.17;20.00;;;6.90;99.90;;;;;;5006431;28;20203;-81
2022/01/26 11:50:14;;;;;;;38.07;20.87;;;6.90;99.90;;;;;;5005655;28;20612;-80
2022/01/26 11:52:44;;;;;;;30.50;17.93;;;7.00;99.90;;;;;;5006113;28;20205;-81
2022/01/26 11:55:28;;;;;;;37.17;19.47;;;7.00;99.90;;;;;;5005285;28;20223;-80
2022/01/26 11:58:05;;;;;;;30.67;18.33;;;7.00;99.90;;;;;;5005037;28;21079;-80
2022/01/26 12:00:41;;;;;;;30.47;18.30;;;7.00;99.90;;;;;;5004615;28;20293;-78
2022/01/26 12:03:19;;;;;;;42.53;19.13;;;7.00;99.90;;;;;;5004857;28;20238;-78
2022/01/26 12:05:48;;;;;;;29.83;18.90;;;7.10;99.90;;;;;;5005278;28;20650;-78
2022/01/26 12:08:15;;;;;;;30.50;17.93;;;7.10;99.90;;;;;;5005110;28;20214;-79
2022/01/26 12:10:45;;;;;;;32.97;19.03;;;7.00;99.90;;;;;;5003611;28;20211;-80
2022/01/26 12:13:19;;;;;;;33.77;19.23;;;7.10;99.90;;;;;;5004839;28;20199;-80
2022/01/26 12:15:50;;;;;;;32.03;19.33;;;7.10;99.90;;;;;;5005188;28;20205;-80
2022/01/26 12:18:26;;;;;;;23.73;15.33;;;7.10;99.90;;;;;;5019854;28;20606;-78
2022/01/26 12:32:22;;;;;;;22.63;14.63;;;7.30;99.90;;;;;;5004645;28;20198;-79
2022/01/26 12:34:59;;;;;;;22.47;12.87;;;7.30;99.90;;;;;;5004798;28;20205;-79
2022/01/26 12:37:41;;;;;;;25.43;13.90;;;7.40;99.90;;;;;;5005054;28;20199;-78
2022/01/26 12:43:06;;;;;;;24.80;13.73;;;7.30;99.90;;;;;;4943612;29;20445;-79
2022/01/26 12:45:34;;;;;;;29.67;14.70;;;7.30;99.90;;;;;;4993744;28;20206;-80
2022/01/26 12:48:01;;;;;;;26.87;15.00;;;7.20;99.90;;;;;;5025651;28;20206;-79
2022/01/26 12:50:29;;;;;;;26.93;14.83;;;7.20;99.90;;;;;;5014705;28;20243;-78
2022/01/26 12:52:58;;;;;;;27.37;14.90;;;7.20;99.90;;;;;;5002943;28;20200;-78
2022/01/26 12:55:27;;;;;;;25.97;16.47;;;7.20;99.90;;;;;;5005300;28;20268;-79
2022/01/26 12:57:54;;;;;;;29.60;15.77;;;7.10;99.90;;;;;;5005874;28;20215;-80
2022/01/26 13:00:23;;;;;;;23.07;15.30;;;7.20;99.90;;;;;;5004514;28;20653;-79
2022/01/26 13:02:50;;;;;;;35.73;18.10;;;7.20;99.90;;;;;;5005047;28;20721;-78
2022/01/26 13:05:24;;;;;;;24.63;15.17;;;7.20;99.90;;;;;;5004776;28;20199;-78
2022/01/26 13:08:01;;;;;;;22.27;14.03;;;7.30;99.90;;;;;;5004643;28;20207;-78
2022/01/26 13:10:28;;;;;;;27.07;15.33;;;7.30;99.90;;;;;;5004918;28;20294;-79
2022/01/26 13:12:55;;;;;;;28.50;16.30;;;7.30;99.90;;;;;;5005817;28;20210;-79
2022/01/26 13:15:40;;;;;;;22.87;14.97;;;7.40;99.90;;;;;;5003959;28;20655;-79
2022/01/26 13:21:19;;;;;;;28.13;14.37;;;7.40;99.90;;;;;;5003485;28;20211;-78
2022/01/26 13:24:04;;;;;;;22.37;13.47;;;7.40;99.90;;;;;;5004591;28;20205;-78
2022/01/26 13:26:38;;;;;;;23.60;12.93;;;7.50;99.90;;;;;;5004720;28;20215;-78
2022/01/26 13:29:21;;;;;;;26.23;14.00;;;7.60;99.90;;;;;;5004461;28;20242;-79
2022/01/26 13:32:43;;;;;;;25.20;14.47;;;7.60;99.90;;;;;;5005207;28;20270;-78
2022/01/26 13:35:34;;;;;;;21.60;12.30;;;7.60;99.90;;;;;;5004471;28;20209;-78
2022/01/26 13:38:20;;;;;;;23.83;13.53;;;7.60;99.90;;;;;;5024574;28;20228;-80
2022/01/26 13:41:00;;;;;;;25.33;13.97;;;7.50;99.90;;;;;;5022969;28;20206;-80
2022/01/26 13:51:54;;;;;;;27.37;14.27;;;7.60;99.90;;;;;;4999715;28;20203;-78
2022/01/26 13:57:16;;;;;;;25.53;13.27;;;7.70;99.90;;;;;;5004032;28;20218;-78
2022/01/26 13:59:48;;;;;;;31.17;15.43;;;7.70;99.90;;;;;;5004224;28;20211;-79
2022/01/26 14:02:15;;;;;;;29.03;15.63;;;7.70;99.90;;;;;;5004071;28;20918;-78
2022/01/26 14:04:42;;;;;;;30.57;15.10;;;7.80;99.90;;;;;;5003716;28;20207;-79
2022/01/26 14:07:09;;;;;;;31.73;15.23;;;7.70;99.90;;;;;;5004276;28;20191;-77
2022/01/26 14:09:37;;;;;;;35.73;15.97;;;7.70;99.90;;;;;;5003756;28;20223;-79
2022/01/26 14:12:10;;;;;;;30.90;15.43;;;7.80;99.90;;;;;;5004095;28;20206;-79
2022/01/26 14:14:42;;;;;;;31.20;15.23;;;7.80;99.90;;;;;;5004150;28;20207;-79
2022/01/26 14:17:15;;;;;;;33.73;16.63;;;7.80;99.90;;;;;;5003705;28;20324;-78
2022/01/26 14:20:06;;;;;;;32.00;16.93;;;7.80;99.90;;;;;;5006132;28;20206;-79
2022/01/26 14:22:38;;;;;;;38.73;19.57;;;7.80;99.90;;;;;;5007794;28;20242;-79
2022/01/26 14:25:15;;;;;;;42.23;20.53;;;7.80;99.90;;;;;;5007107;28;20604;-79
2022/01/26 14:27:47;;;;;;;36.40;18.43;;;7.80;99.90;;;;;;5008428;28;20203;-79